Řízení letového provozu České republiky
Letiste: LKCV Aktualizace: 22.07.2019 13:00:30  UTC
 METAR LKCV 22.07. 13:00 ...
METAR LKCV 221300Z 30005KT 230V350 CAVOK 27/14 Q1023 NOSIG RMK BLU BLU=
 TAF LKCV 22.07. 11:00 ...
TAF LKCV 221100Z 2212/2312 28005KT CAVOK      BECMG 2308/2310 31008KT=